This is the latest recevied weather packets stored in our database for station/object DB0OHA-10. If no packets are shown the sender has not sent any weather packets the latest 1 day(s).
| Time | Temp. | Humidity | Pressure | Rain* | Wind** | Luminosity | Snow |
|---|---|---|---|---|---|---|---|
| 1778082310 | 13.89° C | 1% | 1004.3 hPa | 0 mm | - | 229 W/m² | - |
| 1778081410 | 14.44° C | 1% | 1004.4 hPa | 0 mm | - | 271 W/m² | - |
| 1778067010 | 12.78° C | 1% | 1004.1 hPa | 4.32 mm | - | 181 W/m² | - |
| 1778057116 | 11.67° C | 1% | 1004 hPa | 0.76 mm | - | 155 W/m² | - |
| 1778056216 | 11.67° C | 1% | 1003.9 hPa | 0.76 mm | - | 76 W/m² | - |
| 1778051717 | 11.11° C | 1% | 1003.6 hPa | 0.25 mm | - | 74 W/m² | - |
| 1778045411 | 11.11° C | 1% | 1003.5 hPa | 0 mm | - | 28 W/m² | - |
| 1778044516 | 11.11° C | 1% | 1003.4 hPa | 0.25 mm | - | 32 W/m² | - |
| 1778044511 | 11.11° C | 1% | 1003.4 hPa | 0.25 mm | - | 32 W/m² | - |
| 1778043868 | 10.56° C | 1% | 1003.4 hPa | 0.25 mm | - | 18 W/m² | - |
| 1778043611 | 10.56° C | 1% | 1003.4 hPa | 0.25 mm | - | 18 W/m² | - |
| 1778042711 | 10.56° C | 1% | 1003.6 hPa | 0.25 mm | - | 9 W/m² | - |
| 1778041811 | 10.56° C | 1% | 1003.6 hPa | 0.76 mm | - | 9 W/m² | - |
| 1778040916 | 11.11° C | 1% | 1003.6 hPa | 1.02 mm | - | 0 W/m² | - |
| 1778040911 | 11.11° C | 1% | 1003.6 hPa | 1.02 mm | - | 0 W/m² | - |
| 1778040011 | 11.11° C | 1% | 1003.5 hPa | 2.54 mm | - | 0 W/m² | - |
| 1778039111 | 11.11° C | 1% | 1003.5 hPa | 3.81 mm | - | 0 W/m² | - |
| 1778038474 | 11.11° C | 1% | 1003.5 hPa | 4.57 mm | - | 0 W/m² | - |
| 1778038211 | 11.11° C | 1% | 1003.5 hPa | 4.57 mm | - | 0 W/m² | - |
| 1778037316 | 11.11° C | 1% | 1003.7 hPa | 5.59 mm | - | 0 W/m² | - |
| 1778037311 | 11.11° C | 1% | 1003.7 hPa | 5.59 mm | - | 0 W/m² | - |
| 1778036483 | 11.11° C | 1% | 1003.9 hPa | 5.59 mm | - | 0 W/m² | - |
| 1778036418 | 11.11° C | 1% | 1003.9 hPa | 5.59 mm | - | 0 W/m² | - |
| 1778036411 | 11.11° C | 1% | 1003.9 hPa | 5.59 mm | - | 0 W/m² | - |
| 1778035511 | 11.11° C | 1% | 1004.1 hPa | 5.33 mm | - | 0 W/m² | - |
* Rain latest hour (hover to see other rain measurements)
** Current wind speed in m/s (hover to see current wind gust speed)